FW7044 Weather Reports


Display with metric or nautical units.
time (UTC)temp
F
wind
direction
speed
MPH
gust
MPH
rain 1hr
in
rain 24hr
in
rain mn
in
humidity
%
barometer
mb
20220518030912 77 188 2.0 2.0 0.00 0.00 0.00 83 1016.4
20220518030413 77 154 3.0 3.0 0.00 0.00 0.00 83 1016.3
20220518025911 77 171 2.0 2.0 0.00 0.00 0.00 83 1016.1
20220518025409 77 149 3.0 3.0 0.00 0.00 0.00 84 1016.4
20220518024909 77 190 2.0 3.0 0.00 0.00 0.00 84 1016.3
20220518024408 77 231 1.0 1.0 0.00 0.00 0.00 84 1016.5
20220518023907 77 213 2.0 2.0 0.00 0.00 0.00 84 1016.5
20220518023406 77 230 1.0 2.0 0.00 0.00 0.00 83 1016.5
20220518022905 77 109 2.0 3.0 0.00 0.00 0.00 83 1015.9
20220518022404 77 149 3.0 3.0 0.00 0.00 0.00 82 1016.1
20220518021903 77 205 4.0 5.0 0.00 0.00 0.00 82 1016.1
20220518021402 77 146 2.0 3.0 0.00 0.00 0.00 82 1016.0
20220518020901 77 188 3.0 3.0 0.00 0.00 0.00 82 1016.2
20220518020400 77 119 3.0 3.0 0.00 0.00 0.00 81 1016.1
20220518015900 77 94 3.0 6.0 0.00 0.00 0.00 81 1016.2
20220518015400 77 81 1.0 1.0 0.00 0.00 0.00 81 1015.9
20220518014900 77 115 1.0 1.0 0.00 0.00 0.00 81 1016.0
20220518014359 77 17 0.0 0.0 0.00 0.00 0.00 80 1016.2
20220518013859 77 30 0.0 0.0 0.00 0.00 0.00 80 1016.0
20220518013359 78 83 2.0 2.0 0.00 0.00 0.00 80 1015.9
20220518012858 78 35 1.0 1.0 0.00 0.00 0.00 79 1015.9
20220518012356 78 214 1.0 1.0 0.00 0.00 0.00 78 1015.7
20220518011855 78 165 0.0 1.0 0.00 0.00 0.00 78 1015.6
20220518011353 78 111 3.0 3.0 0.00 0.00 0.00 77 1015.7
20220518010851 78 168 3.0 5.0 0.00 0.00 0.00 77 1015.6
20220518010351 79 222 2.0 3.0 0.00 0.00 0.00 76 1015.4
20220518005849 79 145 4.0 5.0 0.00 0.00 0.00 75 1015.5
20220518005349 79 253 0.0 1.0 0.00 0.00 0.00 74 1015.2
20220518004850 79 200 3.0 3.0 0.00 0.00 0.00 74 1015.2
20220518004349 79 219 2.0 2.0 0.00 0.00 0.00 74 1015.1
20220518003848 79 194 4.0 5.0 0.00 0.00 0.00 74 1015.2
20220518003347 79 234 1.0 1.0 0.00 0.00 0.00 73 1014.9
20220518002846 80 187 3.0 3.0 0.00 0.00 0.00 73 1014.7
20220518002345 80 111 1.0 1.0 0.00 0.00 0.00 73 1014.8
20220518001843 80 61 1.0 1.0 0.00 0.00 0.00 73 1014.4
20220518001343 80 106 3.0 5.0 0.00 0.00 0.00 73 1014.6
20220518000842 80 142 2.0 3.0 0.00 0.00 0.00 73 1014.5
20220518000341 81 108 2.0 2.0 0.00 0.00 0.00 72 1014.4
20220517235841 81 112 4.0 5.0 0.00 0.00 0.00 72 1014.3
20220517235340 81 133 2.0 2.0 0.00 0.00 0.00 71 1014.2
20220517234840 81 123 6.0 7.0 0.00 0.00 0.00 70 1014.2
20220517234339 82 160 4.0 6.0 0.00 0.00 0.00 70 1014.1
20220517233838 82 128 5.0 7.0 0.00 0.00 0.00 70 1013.9
20220517233337 82 200 2.0 2.0 0.00 0.00 0.00 70 1014.1
20220517232835 82 178 2.0 3.0 0.00 0.00 0.00 69 1014.1
20220517232333 83 182 1.0 1.0 0.00 0.00 0.00 69 1013.9
20220517231832 83 225 1.0 1.0 0.00 0.00 0.00 68 1014.0
20220517231331 83 91 2.0 3.0 0.00 0.00 0.00 68 1013.9
20220517230830 84 125 1.0 1.0 0.00 0.00 0.00 67 1013.9
20220517230329 84 102 5.0 7.0 0.00 0.00 0.00 66 1014.0
20220517225828 84 124 5.0 6.0 0.00 0.00 0.00 65 1013.7
20220517225327 84 103 3.0 3.0 0.00 0.00 0.00 65 1013.7
20220517224827 84 142 5.0 7.0 0.00 0.00 0.00 64 1013.8
20220517224327 84 225 4.0 6.0 0.00 0.00 0.00 66 1013.7
20220517223827 84 1 1.0 1.0 0.00 0.00 0.00 66 1013.5
20220517223325 85 85 2.0 3.0 0.00 0.00 0.00 65 1013.6
20220517222824 85 108 4.0 5.0 0.00 0.00 0.00 64 1013.6
20220517222323 85 126 5.0 6.0 0.00 0.00 0.00 64 1013.6
20220517221822 86 129 6.0 8.0 0.00 0.00 0.00 63 1013.9
20220517221322 86 79 2.0 2.0 0.00 0.00 0.00 63 1013.6
20220517220821 86 252 2.0 3.0 0.00 0.00 0.00 62 1013.4
20220517220319 86 152 7.0 9.0 0.00 0.00 0.00 63 1013.8
20220517215819 86 107 8.0 9.0 0.00 0.00 0.00 62 1013.6
20220517215317 86 174 11.0 14.0 0.00 0.00 0.00 62 1013.7
20220517214816 87 105 7.0 10.0 0.00 0.00 0.00 62 1013.6
20220517214314 86 162 7.0 9.0 0.00 0.00 0.00 63 1013.9
20220517213813 86 37 3.0 5.0 0.00 0.00 0.00 63 1013.6
20220517213312 87 84 4.0 7.0 0.00 0.00 0.00 61 1013.7
20220517212810 86 125 7.0 8.0 0.00 0.00 0.00 62 1013.7
20220517212310 86 46 4.0 6.0 0.00 0.00 0.00 63 1013.7
20220517211809 86 110 3.0 5.0 0.00 0.00 0.00 63 1013.5
20220517211308 86 28 2.0 3.0 0.00 0.00 0.00 62 1013.8
20220517210807 86 15 4.0 6.0 0.00 0.00 0.00 63 1013.4
20220517210305 86 110 4.0 5.0 0.00 0.00 0.00 62 1013.6
20220517205805 86 115 3.0 3.0 0.00 0.00 0.00 62 1013.6
20220517205304 86 92 4.0 5.0 0.00 0.00 0.00 62 1013.7
20220517204803 87 104 3.0 5.0 0.00 0.00 0.00 60 1013.5
20220517204302 87 116 5.0 7.0 0.00 0.00 0.00 59 1013.6
20220517203802 87 95 2.0 3.0 0.00 0.00 0.00 58 1013.8
20220517203302 89 102 6.0 7.0 0.00 0.00 0.00 55 1013.8
20220517202802 90 76 3.0 5.0 0.00 0.00 0.00 54 1013.8
20220517202301 92 102 1.0 2.0 0.00 0.00 0.00 51 1013.7
20220517201759 93 205 3.0 3.0 0.00 0.00 0.00 48 1013.8
20220517201257 93 153 1.0 2.0 0.00 0.00 0.00 41 1013.6
20220517200757 95 306 1.0 1.0 0.00 0.00 0.00 40 1013.9
20220517200255 95 194 2.0 2.0 0.00 0.00 0.00 40 1013.8
20220517195755 94 236 5.0 6.0 0.00 0.00 0.00 40 1014.0
20220517195254 93 268 2.0 2.0 0.00 0.00 0.00 41 1014.0
20220517194753 93 286 1.0 2.0 0.00 0.00 0.00 42 1013.9
20220517194251 93 298 0.0 1.0 0.00 0.00 0.00 41 1014.1
20220517193749 92 67 2.0 2.0 0.00 0.00 0.00 43 1014.1
20220517193247 94 239 3.0 5.0 0.00 0.00 0.00 42 1014.1
20220517192746 94 274 3.0 3.0 0.00 0.00 0.00 42 1014.2
20220517192244 94 270 1.0 1.0 0.00 0.00 0.00 42 1014.3
20220517191742 94 176 3.0 3.0 0.00 0.00 0.00 41 1014.6
20220517191115 93 290 1.0 1.0 0.00 0.00 0.00 44 1014.1
20220517190614 91 287 3.0 3.0 0.00 0.00 0.00 44 1014.2
20220517190113 93 23 1.0 1.0 0.00 0.00 0.00 44 1014.4
20220517185612 92 321 0.0 1.0 0.00 0.00 0.00 43 1014.4
20220517185110 92 271 1.0 1.0 0.00 0.00 0.00 44 1014.5
20220517184609 95 7 4.0 6.0 0.00 0.00 0.00 41 1014.4
20220517184107 93 250 3.0 5.0 0.00 0.00 0.00 43 1014.6
20220517183606 92 281 0.0 1.0 0.00 0.00 0.00 44 1014.6
20220517183104 93 215 4.0 6.0 0.00 0.00 0.00 42 1014.8
20220517182604 93 126 3.0 3.0 0.00 0.00 0.00 44 1014.7
20220517182103 91 224 3.0 3.0 0.00 0.00 0.00 45 1014.6
20220517181602 91 216 3.0 3.0 0.00 0.00 0.00 45 1014.8
20220517181101 92 141 2.0 2.0 0.00 0.00 0.00 44 1014.9
20220517180559 93 240 3.0 6.0 0.00 0.00 0.00 44 1015.1
20220517180059 93 219 4.0 5.0 0.00 0.00 0.00 45 1015.1
20220517175559 92 230 1.0 2.0 0.00 0.00 0.00 45 1015.2
20220517175058 94 296 1.0 2.0 0.00 0.00 0.00 44 1015.3
20220517174557 94 278 3.0 3.0 0.00 0.00 0.00 42 1015.3
20220517174056 93 282 1.0 1.0 0.00 0.00 0.00 44 1015.5
20220517173557 91 276 1.0 1.0 0.00 0.00 0.00 44 1015.5
20220517173056 92 264 2.0 2.0 0.00 0.00 0.00 45 1015.7
20220517172555 93 202 5.0 6.0 0.00 0.00 0.00 42 1015.9
20220517172055 93 147 1.0 2.0 0.00 0.00 0.00 44 1015.5
20220517171554 89 270 0.0 1.0 0.00 0.00 0.00 49 1015.7
20220517171053 92 314 5.0 6.0 0.00 0.00 0.00 47 1015.7
20220517170553 90 8 1.0 1.0 0.00 0.00 0.00 50 1015.8
20220517170052 91 358 3.0 5.0 0.00 0.00 0.00 45 1015.9
20220517165551 91 286 2.0 2.0 0.00 0.00 0.00 46 1015.9